Aérodrome :
LOGIN :

S'inscrire | Disclaimer

   EN    FR    IT 

 










Légende :    VFR   VFR Marginal   IFR   IFR Intensif   IFR Très Intensif
Visi : 
Plafond : 
>= 8 km
>= 3000ft
5 à 8 km
1000 à 3000 ft
1500m à 5 km
500 à 1000 ft
800 à 1500m
200 à 500 ft
< 800m
< 200 ft
Symboles :   Orages  Brouillard  Fortes neiges  Fortes précipitations  Vent > 20 kt
SIGMETs :   Divers  Orages  Givrage  Turbulence  Onde Orograph.  Cendres Volcan.







- Altitude de l'aérodrome : 202 ft
- Code IATA : LGW
- Voir les cartes d'approche


EGKK - London Gatwick

DERNIER METAR :
  • 241650Z 29007KT CAVOK 19/09 Q1017

METARs EXPIRÉS :
  • 241620Z 30008KT CAVOK 20/09 Q1017
  • 241550Z 29008KT CAVOK 20/08 Q1017
  • 241520Z 30010KT CAVOK 20/09 Q1017
  • 241450Z 27009KT 240V310 CAVOK 21/09 Q1017
  • 241420Z 26008KT CAVOK 22/08 Q1017
  • 241350Z 31008KT 280V360 CAVOK 20/08 Q1017

TAF TAF EGKK
Valide du 24 à 12h jusqu'au 25 à 18h UTC


241058Z 2412/2518 31006KT 9999 FEW045
PROB30
TEMPO 2414/2417 6000 SHRA
PROB30
TEMPO 2417/2421 4000 +SHRA
PROB30 2500/2506 8000
PROB30
TEMPO 2511/2518 6000 SHRA
Pas de NOTAMs connus pour ce terrain.



MET'MAP, la Météo Aéronautique d'un coup d'oeil ! - Copyright ORBIFLY Décembre 2007 - Disclaimer

ORBIFLY MET'MAP TEAM :

Programmation & Développement : Alexandra Zaïnal
Conception & Développement : Baudouin d'Aumeries
Co-Programmation & Développement : Marc-Olivier Méhu
Soutien technique & logistique : Manuel Goepfert

Contact : metmap@orbifly.com




SOURCES & CREDITS :

   NOAA